createdAt,value
2019-02-26T00:00:14.828Z,81.32
2019-02-26T00:01:16.368Z,81.42
2019-02-26T00:02:17.075Z,81.70
2019-02-26T00:03:13.956Z,81.84
2019-02-26T00:04:13.946Z,81.84
2019-02-26T00:05:17.379Z,81.42
2019-02-26T00:06:16.094Z,81.38
2019-02-26T00:07:16.247Z,81.49
2019-02-26T00:08:14.601Z,81.52
2019-02-26T00:09:18.161Z,81.73
2019-02-26T00:10:13.883Z,81.59
2019-02-26T00:11:13.872Z,81.84
2019-02-26T00:12:13.860Z,81.42
2019-02-26T00:13:13.852Z,82.15
2019-02-26T00:14:17.416Z,82.46
2019-02-26T00:15:13.831Z,82.25
2019-02-26T00:16:15.826Z,82.50
2019-02-26T00:17:15.306Z,82.67
2019-02-26T00:18:14.421Z,82.39
2019-02-26T00:19:14.375Z,82.35
2019-02-26T00:20:17.086Z,82.50
2019-02-26T00:21:13.768Z,82.70
2019-02-26T00:22:15.542Z,82.70
2019-02-26T00:23:13.747Z,83.08
2019-02-26T00:24:14.697Z,83.08
2019-02-26T00:25:15.420Z,82.67
2019-02-26T00:26:17.105Z,82.67
2019-02-26T00:27:13.707Z,82.67
2019-02-26T00:28:15.523Z,83.08
2019-02-26T00:29:13.683Z,82.87
2019-02-26T00:30:16.136Z,82.70
2019-02-26T00:31:13.665Z,82.91
2019-02-26T00:32:14.398Z,82.91
2019-02-26T00:33:13.642Z,82.70
2019-02-26T00:34:15.974Z,83.22
2019-02-26T00:35:13.625Z,83.12
2019-02-26T00:36:15.316Z,83.37
2019-02-26T00:37:13.604Z,83.37
2019-02-26T00:38:15.556Z,83.78
2019-02-26T00:39:13.581Z,83.58
2019-02-26T00:40:14.608Z,83.51
2019-02-26T00:41:13.559Z,83.78
2019-02-26T00:42:13.546Z,83.58
2019-02-26T00:43:13.537Z,83.37
2019-02-26T00:44:13.540Z,83.92
2019-02-26T00:45:13.517Z,84.23
2019-02-26T00:46:13.506Z,84.65
2019-02-26T00:47:13.496Z,84.86
2019-02-26T00:48:13.485Z,84.75
2019-02-26T00:49:13.481Z,84.61
2019-02-26T00:50:14.258Z,84.65
2019-02-26T00:51:13.450Z,84.86
2019-02-26T00:52:15.571Z,84.72
2019-02-26T00:53:17.097Z,84.92
2019-02-26T00:54:14.421Z,84.61
2019-02-26T00:55:13.412Z,84.30
2019-02-26T00:56:13.417Z,83.99
2019-02-26T00:57:13.951Z,83.33
2019-02-26T00:58:13.378Z,83.68
2019-02-26T00:59:13.366Z,84.03
2019-02-26T01:00:13.355Z,84.09
2019-02-26T01:01:15.294Z,84.82
2019-02-26T01:02:13.349Z,84.51
2019-02-26T01:03:15.286Z,84.09
2019-02-26T01:04:13.316Z,84.09
2019-02-26T01:05:15.522Z,83.47
2019-02-26T01:06:13.291Z,83.33
2019-02-26T01:07:13.283Z,83.64
2019-02-26T01:08:15.192Z,83.43
2019-02-26T01:09:13.259Z,83.53
2019-02-26T01:10:13.982Z,83.68
2019-02-26T01:11:13.238Z,83.37
2019-02-26T01:12:13.817Z,84.09
2019-02-26T01:13:22.315Z,84.20
2019-02-26T01:14:13.597Z,84.20
2019-02-26T01:15:14.074Z,84.86
2019-02-26T01:16:13.187Z,84.41
2019-02-26T01:17:14.813Z,85.06
2019-02-26T01:18:13.164Z,84.55
2019-02-26T01:19:15.201Z,84.61
2019-02-26T01:20:13.142Z,84.75
2019-02-26T01:21:13.135Z,84.75
2019-02-26T01:22:13.122Z,84.96
2019-02-26T01:23:13.109Z,85.06
2019-02-26T01:24:13.100Z,85.06
2019-02-26T01:25:15.191Z,84.75
2019-02-26T01:26:13.076Z,84.92
2019-02-26T01:27:13.068Z,84.44
2019-02-26T01:28:16.056Z,84.86
2019-02-26T01:29:16.021Z,84.96
2019-02-26T01:30:13.039Z,85.17
2019-02-26T01:31:13.040Z,85.28
2019-02-26T01:32:13.805Z,85.17
2019-02-26T01:33:13.012Z,85.38
2019-02-26T01:34:14.090Z,85.69
2019-02-26T01:35:13.059Z,85.69
2019-02-26T01:36:13.986Z,86.00
2019-02-26T01:37:13.010Z,86.21
2019-02-26T01:38:14.380Z,86.00
2019-02-26T01:39:13.882Z,86.00
2019-02-26T01:40:15.619Z,86.11
2019-02-26T01:41:15.474Z,86.11
2019-02-26T01:42:13.378Z,86.11
2019-02-26T01:43:13.008Z,86.11
2019-02-26T01:44:12.885Z,85.69
2019-02-26T01:45:12.892Z,86.52
2019-02-26T01:46:14.522Z,86.52
2019-02-26T01:47:12.849Z,86.32
2019-02-26T01:48:16.731Z,86.46
2019-02-26T01:49:13.943Z,86.42
2019-02-26T01:50:13.511Z,86.25
2019-02-26T01:51:12.817Z,86.46
2019-02-26T01:52:14.967Z,86.32
2019-02-26T01:53:14.503Z,86.57
2019-02-26T01:54:14.404Z,86.15
2019-02-26T01:55:12.786Z,85.69
2019-02-26T01:56:12.758Z,85.52
2019-02-26T01:57:12.745Z,86.46
2019-02-26T01:58:15.784Z,86.15
2019-02-26T01:59:12.726Z,85.73
2019-02-26T02:00:12.718Z,86.67
2019-02-26T02:01:14.289Z,86.15
2019-02-26T02:02:17.274Z,85.94
2019-02-26T02:03:13.677Z,86.77
2019-02-26T02:04:13.238Z,86.35
2019-02-26T02:05:12.665Z,85.94
2019-02-26T02:06:14.189Z,86.04
2019-02-26T02:07:12.668Z,86.46
2019-02-26T02:08:13.265Z,86.57
2019-02-26T02:09:14.129Z,86.88
2019-02-26T02:10:12.606Z,86.77
2019-02-26T02:11:12.600Z,86.67
2019-02-26T02:12:12.591Z,86.91
2019-02-26T02:13:12.598Z,86.77
2019-02-26T02:14:13.148Z,86.88
2019-02-26T02:15:14.917Z,86.60
2019-02-26T02:16:12.546Z,86.67
2019-02-26T02:17:13.619Z,86.67
2019-02-26T02:18:12.523Z,86.98
2019-02-26T02:19:15.520Z,87.08
2019-02-26T02:20:13.102Z,87.08
2019-02-26T02:21:12.494Z,86.67
2019-02-26T02:22:14.545Z,86.57
2019-02-26T02:23:12.472Z,86.67
2019-02-26T02:24:13.283Z,86.46
2019-02-26T02:25:12.492Z,86.57
2019-02-26T02:26:13.889Z,86.35
2019-02-26T02:27:12.609Z,86.88
2019-02-26T02:28:12.420Z,86.67
2019-02-26T02:29:12.882Z,87.15
2019-02-26T02:30:18.579Z,86.77
2019-02-26T02:31:13.486Z,86.63
2019-02-26T02:32:12.376Z,86.52
2019-02-26T02:33:17.203Z,86.17
2019-02-26T02:34:13.362Z,86.21
2019-02-26T02:35:13.418Z,86.38
2019-02-26T02:36:14.776Z,86.27
2019-02-26T02:37:12.431Z,86.07
2019-02-26T02:38:12.317Z,86.17
2019-02-26T02:39:15.449Z,85.34
2019-02-26T02:40:12.295Z,85.86
2019-02-26T02:41:12.283Z,85.28
2019-02-26T02:42:14.112Z,85.69
2019-02-26T02:43:13.226Z,85.49
2019-02-26T02:44:14.740Z,86.63
2019-02-26T02:45:16.115Z,86.63
2019-02-26T02:46:12.227Z,86.52
2019-02-26T02:47:12.215Z,86.57
2019-02-26T02:48:14.097Z,86.94
2019-02-26T02:49:13.270Z,86.98
2019-02-26T02:50:14.824Z,86.98
2019-02-26T02:51:13.809Z,87.29
2019-02-26T02:52:12.202Z,86.73
2019-02-26T02:53:12.163Z,86.63
2019-02-26T02:54:15.319Z,86.83
2019-02-26T02:55:15.565Z,86.67
2019-02-26T02:56:12.923Z,86.88
2019-02-26T02:57:12.116Z,86.88
2019-02-26T02:58:13.088Z,86.91
2019-02-26T02:59:14.049Z,87.92
2019-02-26T03:00:12.082Z,87.19
2019-02-26T03:01:13.869Z,86.98
2019-02-26T03:02:14.186Z,86.98
2019-02-26T03:03:12.047Z,86.67
2019-02-26T03:04:14.758Z,87.29
2019-02-26T03:05:13.026Z,87.92
2019-02-26T03:06:12.378Z,87.92
2019-02-26T03:07:12.023Z,86.98
2019-02-26T03:08:13.971Z,87.29
2019-02-26T03:09:14.495Z,88.02
2019-02-26T03:10:12.114Z,87.50
2019-02-26T03:11:11.965Z,87.40
2019-02-26T03:12:11.951Z,87.50
2019-02-26T03:13:11.964Z,87.92
2019-02-26T03:14:13.975Z,87.96
2019-02-26T03:15:11.920Z,87.85
2019-02-26T03:16:13.524Z,88.12
2019-02-26T03:17:14.716Z,87.98
2019-02-26T03:18:14.861Z,86.98
2019-02-26T03:19:12.599Z,86.98
2019-02-26T03:20:11.868Z,87.92
2019-02-26T03:21:11.860Z,86.67
2019-02-26T03:22:12.884Z,87.29
2019-02-26T03:23:15.792Z,87.92
2019-02-26T03:24:12.838Z,87.92
2019-02-26T03:25:11.822Z,87.08
2019-02-26T03:26:14.687Z,88.23
2019-02-26T03:27:11.792Z,88.27
2019-02-26T03:28:11.791Z,87.92
2019-02-26T03:29:11.773Z,87.81
2019-02-26T03:30:20.679Z,87.75
2019-02-26T03:31:12.828Z,88.06
2019-02-26T03:32:11.743Z,88.06
2019-02-26T03:33:11.735Z,88.27
2019-02-26T03:34:18.854Z,88.68
2019-02-26T03:35:13.327Z,88.68
2019-02-26T03:36:13.902Z,88.37
2019-02-26T03:37:11.690Z,88.48
2019-02-26T03:38:11.685Z,88.48
2019-02-26T03:39:11.668Z,88.68
2019-02-26T03:40:11.680Z,88.73
2019-02-26T03:41:11.678Z,89.00
2019-02-26T03:42:14.108Z,89.10
2019-02-26T03:43:13.232Z,88.89
2019-02-26T03:44:11.612Z,89.20
2019-02-26T03:45:11.598Z,89.31
2019-02-26T03:46:11.593Z,89.83
2019-02-26T03:47:11.646Z,89.41
2019-02-26T03:48:11.569Z,89.00
2019-02-26T03:49:11.563Z,88.85
2019-02-26T03:50:11.551Z,88.58
2019-02-26T03:51:11.535Z,88.43
2019-02-26T03:52:15.351Z,88.68
2019-02-26T03:53:11.564Z,88.68
2019-02-26T03:54:11.505Z,88.43
2019-02-26T03:55:12.177Z,88.75
2019-02-26T03:56:14.318Z,87.81
2019-02-26T03:57:14.118Z,88.17
2019-02-26T03:58:11.470Z,87.96
2019-02-26T03:59:11.834Z,88.58
2019-02-26T04:00:14.106Z,88.48
2019-02-26T04:01:13.639Z,88.58
2019-02-26T04:02:12.596Z,88.58
2019-02-26T04:03:12.461Z,88.37
2019-02-26T04:04:11.400Z,87.85
2019-02-26T04:05:11.493Z,88.06
2019-02-26T04:06:12.152Z,88.48
2019-02-26T04:07:11.371Z,88.68
2019-02-26T04:08:11.361Z,89.10
2019-02-26T04:09:13.696Z,90.19
2019-02-26T04:10:11.336Z,89.04
2019-02-26T04:11:11.381Z,89.41
2019-02-26T04:12:13.588Z,89.94
2019-02-26T04:13:11.311Z,89.31
2019-02-26T04:14:12.646Z,88.79
2019-02-26T04:15:11.288Z,88.33
2019-02-26T04:16:11.272Z,88.12
2019-02-26T04:17:11.277Z,87.96
2019-02-26T04:18:11.260Z,88.27
2019-02-26T04:19:11.238Z,88.48
2019-02-26T04:20:11.230Z,88.68
2019-02-26T04:21:12.211Z,88.20
2019-02-26T04:22:13.133Z,88.83
2019-02-26T04:23:13.306Z,89.25
2019-02-26T04:24:11.454Z,89.76
2019-02-26T04:25:11.182Z,89.87
2019-02-26T04:26:11.166Z,90.08
2019-02-26T04:27:11.157Z,89.14
2019-02-26T04:28:11.314Z,89.25
2019-02-26T04:29:11.243Z,89.25
2019-02-26T04:30:13.445Z,89.39
2019-02-26T04:31:11.113Z,90.12
2019-02-26T04:32:12.199Z,89.39
2019-02-26T04:33:11.626Z,89.81
2019-02-26T04:34:11.086Z,90.33
2019-02-26T04:35:11.094Z,90.47
2019-02-26T04:36:11.739Z,90.37
2019-02-26T04:37:12.902Z,90.79
2019-02-26T04:38:11.041Z,91.00
2019-02-26T04:39:13.654Z,90.68
2019-02-26T04:40:13.925Z,91.04
2019-02-26T04:41:13.381Z,90.93
2019-02-26T04:42:12.030Z,91.14
2019-02-26T04:43:12.875Z,90.41
2019-02-26T04:44:10.979Z,91.35
2019-02-26T04:45:10.969Z,91.87
2019-02-26T04:46:13.433Z,92.29
2019-02-26T04:47:11.053Z,92.40
2019-02-26T04:48:14.731Z,92.71
2019-02-26T04:49:11.925Z,92.50
2019-02-26T04:50:10.918Z,91.77
2019-02-26T04:51:10.907Z,93.12
2019-02-26T04:52:14.199Z,93.65
2019-02-26T04:53:11.902Z,93.44
2019-02-26T04:54:10.879Z,93.23
2019-02-26T04:55:10.869Z,94.17
2019-02-26T04:56:12.793Z,94.27
2019-02-26T04:57:10.844Z,94.17
2019-02-26T04:58:12.486Z,94.37
2019-02-26T04:59:12.335Z,94.69
2019-02-26T05:00:10.958Z,94.58
2019-02-26T05:01:12.912Z,94.06
2019-02-26T05:02:10.807Z,93.50
2019-02-26T05:03:14.054Z,93.08
2019-02-26T05:04:10.776Z,93.23
2019-02-26T05:05:10.800Z,93.44
2019-02-26T05:06:10.988Z,93.18
2019-02-26T05:07:13.458Z,92.77
2019-02-26T05:08:12.858Z,92.77
2019-02-26T05:09:10.735Z,92.46
2019-02-26T05:10:10.708Z,92.56
2019-02-26T05:11:14.848Z,92.56
2019-02-26T05:12:11.697Z,92.46
2019-02-26T05:13:10.690Z,92.14
2019-02-26T05:14:11.747Z,92.14
2019-02-26T05:15:13.903Z,92.25
2019-02-26T05:16:11.664Z,92.25
2019-02-26T05:17:10.647Z,92.03
2019-02-26T05:18:10.627Z,92.14
2019-02-26T05:19:13.583Z,91.93
2019-02-26T05:20:15.122Z,91.93
2019-02-26T05:21:12.675Z,91.72
2019-02-26T05:22:10.610Z,91.62
2019-02-26T05:23:10.581Z,91.83
2019-02-26T05:24:14.565Z,91.66
2019-02-26T05:25:14.039Z,92.29
2019-02-26T05:26:14.978Z,92.35
2019-02-26T05:27:12.300Z,92.56
2019-02-26T05:28:14.043Z,92.77
2019-02-26T05:29:10.514Z,92.46
2019-02-26T05:30:13.028Z,92.35
2019-02-26T05:31:12.461Z,92.56
2019-02-26T05:32:10.486Z,92.66
2019-02-26T05:33:10.494Z,92.66
2019-02-26T05:34:12.415Z,91.72
2019-02-26T05:35:11.611Z,91.37
2019-02-26T05:36:12.085Z,91.31
2019-02-26T05:37:11.011Z,91.06
2019-02-26T05:38:10.423Z,91.52
2019-02-26T05:39:10.435Z,91.20
2019-02-26T05:40:12.843Z,91.72
2019-02-26T05:41:10.391Z,91.27
2019-02-26T05:42:10.387Z,91.27
2019-02-26T05:43:10.375Z,91.68
2019-02-26T05:44:10.709Z,91.62
2019-02-26T05:45:10.352Z,91.00
2019-02-26T05:46:10.359Z,91.62
2019-02-26T05:47:10.328Z,91.87
2019-02-26T05:48:12.494Z,92.81
2019-02-26T05:49:13.413Z,92.40
2019-02-26T05:50:16.334Z,92.91
2019-02-26T05:51:11.582Z,93.65
2019-02-26T05:52:10.275Z,93.29
2019-02-26T05:53:11.419Z,92.46
2019-02-26T05:54:12.272Z,91.78
2019-02-26T05:55:13.958Z,91.06
2019-02-26T05:56:11.699Z,90.75
2019-02-26T05:57:25.459Z,90.54
2019-02-26T05:58:13.469Z,90.85
2019-02-26T05:59:12.482Z,90.64
2019-02-26T06:00:13.189Z,90.44
2019-02-26T06:01:10.185Z,90.85
2019-02-26T06:02:10.847Z,90.75
2019-02-26T06:03:12.285Z,90.64
2019-02-26T06:04:12.333Z,91.31
2019-02-26T06:05:11.895Z,91.20
2019-02-26T06:06:10.133Z,91.83
2019-02-26T06:07:10.124Z,91.62
2019-02-26T06:08:10.114Z,91.83
2019-02-26T06:09:10.124Z,91.72
2019-02-26T06:10:10.096Z,91.72
2019-02-26T06:11:10.082Z,91.41
2019-02-26T06:12:10.073Z,91.37
2019-02-26T06:13:12.868Z,90.75
2019-02-26T06:14:12.729Z,90.37
2019-02-26T06:15:10.093Z,91.20
2019-02-26T06:16:10.030Z,91.41
2019-02-26T06:17:12.546Z,91.83
2019-02-26T06:18:10.013Z,91.72
2019-02-26T06:19:11.008Z,91.62
2019-02-26T06:20:11.044Z,91.83
2019-02-26T06:21:09.995Z,91.52
2019-02-26T06:22:14.465Z,91.72
2019-02-26T06:23:10.960Z,91.83
2019-02-26T06:24:09.948Z,92.03
2019-02-26T06:25:17.638Z,91.83
2019-02-26T06:26:14.890Z,91.78
2019-02-26T06:27:13.210Z,91.27
2019-02-26T06:28:12.580Z,90.95
2019-02-26T06:29:09.899Z,90.64
2019-02-26T06:30:12.255Z,89.98
2019-02-26T06:31:11.752Z,90.19
2019-02-26T06:32:11.882Z,90.19
2019-02-26T06:33:12.170Z,90.19
2019-02-26T06:34:11.860Z,90.08
2019-02-26T06:35:11.067Z,89.14
2019-02-26T06:36:09.831Z,90.08
2019-02-26T06:37:11.602Z,89.98
2019-02-26T06:38:11.652Z,90.39
2019-02-26T06:39:09.792Z,90.08
2019-02-26T06:40:09.783Z,90.39
2019-02-26T06:41:09.780Z,90.19
2019-02-26T06:42:11.965Z,90.29
2019-02-26T06:43:09.751Z,90.19
2019-02-26T06:44:09.765Z,90.29
2019-02-26T06:45:10.986Z,90.08
2019-02-26T06:46:11.747Z,89.14
2019-02-26T06:47:09.710Z,89.56
2019-02-26T06:48:12.588Z,89.73
2019-02-26T06:49:10.829Z,89.14
2019-02-26T06:50:11.100Z,89.10
2019-02-26T06:51:09.671Z,89.31
2019-02-26T06:52:10.824Z,88.89
2019-02-26T06:53:11.160Z,88.48
2019-02-26T06:54:09.639Z,88.79
2019-02-26T06:55:09.645Z,88.23
2019-02-26T06:56:09.632Z,88.02
2019-02-26T06:57:09.607Z,87.92
2019-02-26T06:58:09.597Z,87.21
2019-02-26T06:59:10.301Z,85.93
2019-02-26T07:00:09.575Z,84.50
2019-02-26T07:01:11.920Z,82.73
2019-02-26T07:02:11.030Z,81.56
2019-02-26T07:03:09.540Z,81.20
2019-02-26T07:04:12.185Z,80.68
2019-02-26T07:05:09.530Z,80.54
2019-02-26T07:06:09.519Z,79.30
2019-02-26T07:07:13.778Z,79.10
2019-02-26T07:08:09.491Z,79.16
2019-02-26T07:09:10.976Z,78.33
2019-02-26T07:10:09.473Z,77.67
2019-02-26T07:11:09.466Z,77.19
2019-02-26T07:12:09.447Z,78.44
2019-02-26T07:14:18.323Z,78.44
2019-02-26T07:15:18.282Z,77.78
2019-02-26T07:16:20.732Z,77.15
2019-02-26T07:17:19.556Z,77.61
2019-02-26T07:18:19.669Z,78.12
2019-02-26T07:19:18.240Z,77.78
2019-02-26T07:20:18.262Z,76.81
2019-02-26T07:21:18.226Z,75.95
2019-02-26T07:22:18.428Z,75.53
2019-02-26T07:23:18.187Z,75.02
2019-02-26T07:24:19.958Z,75.74
2019-02-26T07:25:18.707Z,75.63
2019-02-26T07:26:18.430Z,74.91
2019-02-26T07:27:18.151Z,75.74
2019-02-26T07:28:19.657Z,75.09
2019-02-26T07:29:18.139Z,74.53
2019-02-26T07:30:18.156Z,72.95
2019-02-26T07:31:18.104Z,72.64
2019-02-26T07:32:19.711Z,72.50
2019-02-26T07:33:18.087Z,72.30
2019-02-26T07:34:18.327Z,72.12
2019-02-26T07:35:18.072Z,72.33
2019-02-26T07:36:18.424Z,72.67
2019-02-26T07:37:18.046Z,72.12
2019-02-26T07:38:20.476Z,72.78
2019-02-26T07:39:20.120Z,73.74
2019-02-26T07:40:18.754Z,74.02
2019-02-26T07:41:18.843Z,73.16
2019-02-26T07:42:18.790Z,73.29
2019-02-26T07:43:20.058Z,73.67
2019-02-26T07:44:18.868Z,72.54
2019-02-26T07:45:21.929Z,68.93
2019-02-26T07:46:19.352Z,66.50
2019-02-26T07:47:17.931Z,66.50
2019-02-26T07:48:21.103Z,64.90
2019-02-26T07:49:19.883Z,63.50
2019-02-26T07:50:17.935Z,62.16
2019-02-26T07:51:17.896Z,61.72
2019-02-26T07:52:17.877Z,62.01
2019-02-26T07:53:19.800Z,60.41
2019-02-26T07:54:17.859Z,59.11
2019-02-26T07:55:17.845Z,62.19
2019-02-26T07:56:17.855Z,62.21
2019-02-26T07:57:18.087Z,59.69
2019-02-26T07:58:18.035Z,59.41
2019-02-26T07:59:27.287Z,60.05
2019-02-26T08:00:18.833Z,61.32
2019-02-26T08:01:17.808Z,61.72
2019-02-26T08:02:17.802Z,62.27
2019-02-26T08:03:19.426Z,63.53
2019-02-26T08:04:18.408Z,63.97
2019-02-26T08:05:19.269Z,65.16
2019-02-26T08:06:17.741Z,65.23
2019-02-26T08:07:19.157Z,66.09
2019-02-26T08:08:19.243Z,67.53
2019-02-26T08:09:19.415Z,68.08
2019-02-26T08:10:19.643Z,66.91
2019-02-26T08:11:17.668Z,65.99
2019-02-26T08:12:17.677Z,68.25
2019-02-26T08:13:17.659Z,67.43
2019-02-26T08:14:18.484Z,66.78
2019-02-26T08:15:17.624Z,65.65
2019-02-26T08:16:18.345Z,65.66
2019-02-26T08:17:17.615Z,61.77
2019-02-26T08:18:17.592Z,58.92
2019-02-26T08:19:17.602Z,58.20
2019-02-26T08:20:17.621Z,57.68
2019-02-26T08:21:18.186Z,56.35
2019-02-26T08:22:17.567Z,57.07
2019-02-26T08:23:19.327Z,59.46
2019-02-26T08:24:19.489Z,58.40
2019-02-26T08:25:17.516Z,56.56
2019-02-26T08:26:19.798Z,56.35
2019-02-26T08:27:17.538Z,54.49
2019-02-26T08:28:18.542Z,55.02
2019-02-26T08:29:17.499Z,58.40
2019-02-26T08:30:20.624Z,56.20
2019-02-26T08:31:18.504Z,56.15
2019-02-26T08:32:18.830Z,57.10
2019-02-26T08:33:17.439Z,57.02
2019-02-26T08:34:17.437Z,58.04
2019-02-26T08:35:18.799Z,56.46
2019-02-26T08:36:17.415Z,56.82
2019-02-26T08:37:17.384Z,58.61
2019-02-26T08:38:17.390Z,58.97
2019-02-26T08:39:17.367Z,61.87
2019-02-26T08:40:17.374Z,61.46
2019-02-26T08:41:17.348Z,61.93
2019-02-26T08:42:17.329Z,63.74
2019-02-26T08:43:17.336Z,63.96
2019-02-26T08:44:17.425Z,60.46
2019-02-26T08:45:17.793Z,58.68
2019-02-26T08:46:18.936Z,56.46
2019-02-26T08:47:19.150Z,57.81
2019-02-26T08:48:19.355Z,56.79
2019-02-26T08:49:18.063Z,56.76
2019-02-26T08:50:17.757Z,57.30
2019-02-26T08:51:18.980Z,57.15
2019-02-26T08:52:19.349Z,58.72
2019-02-26T08:53:17.243Z,60.51
2019-02-26T08:54:20.987Z,61.57
2019-02-26T08:55:21.357Z,61.98
2019-02-26T08:56:18.904Z,61.64
2019-02-26T08:57:17.172Z,61.07
2019-02-26T08:58:17.219Z,60.15
2019-02-26T08:59:17.847Z,60.28
2019-02-26T09:00:17.477Z,60.76
2019-02-26T09:01:17.155Z,61.10
2019-02-26T09:02:17.129Z,60.05
2019-02-26T09:03:17.819Z,59.12
2019-02-26T09:04:19.181Z,60.63
2019-02-26T09:05:17.093Z,60.22
2019-02-26T09:06:17.111Z,58.84
2019-02-26T09:07:18.940Z,58.76
2019-02-26T09:08:18.111Z,58.66
2019-02-26T09:09:17.123Z,59.48
2019-02-26T09:10:17.853Z,57.76
2019-02-26T09:11:17.042Z,56.71
2019-02-26T09:12:17.502Z,57.12
2019-02-26T09:13:18.670Z,56.51
2019-02-26T09:14:16.986Z,56.23
2019-02-26T09:15:16.979Z,56.53
2019-02-26T09:16:16.969Z,56.40
2019-02-26T09:17:20.860Z,56.74
2019-02-26T09:18:20.271Z,56.43
2019-02-26T09:19:16.943Z,56.87
2019-02-26T09:20:16.921Z,57.35
2019-02-26T09:21:18.106Z,56.81
2019-02-26T09:22:19.316Z,56.94
2019-02-26T09:23:20.852Z,56.81
2019-02-26T09:24:16.918Z,56.51
2019-02-26T09:25:16.867Z,55.33
2019-02-26T09:26:16.883Z,55.66
2019-02-26T09:27:16.876Z,55.87
2019-02-26T09:28:16.834Z,54.67
2019-02-26T09:29:17.316Z,53.96
2019-02-26T09:30:16.845Z,53.77
2019-02-26T09:31:16.802Z,54.69
2019-02-26T09:32:18.267Z,54.26
2019-02-26T09:33:16.783Z,53.11
2019-02-26T09:34:16.774Z,52.68
2019-02-26T09:35:19.141Z,52.37
2019-02-26T09:36:20.515Z,53.24
2019-02-26T09:37:16.741Z,53.24
2019-02-26T09:38:17.668Z,54.26
2019-02-26T09:39:16.716Z,53.50
2019-02-26T09:40:17.856Z,52.35
2019-02-26T09:41:18.883Z,51.10
2019-02-26T09:42:16.735Z,50.87
2019-02-26T09:43:17.279Z,51.48
2019-02-26T09:44:16.665Z,49.63
2019-02-26T09:45:17.895Z,49.33
2019-02-26T09:46:18.933Z,48.02
2019-02-26T09:47:16.625Z,48.57
2019-02-26T09:48:17.026Z,49.38
2019-02-26T09:49:16.602Z,48.19
2019-02-26T09:50:17.715Z,48.95
2019-02-26T09:51:16.788Z,48.07
2019-02-26T09:52:18.407Z,47.31
2019-02-26T09:53:16.558Z,47.46
2019-02-26T09:54:17.677Z,45.98
2019-02-26T09:55:16.538Z,46.78
2019-02-26T09:56:16.535Z,47.99
2019-02-26T09:57:18.088Z,48.32
2019-02-26T09:58:20.053Z,48.19
2019-02-26T09:59:16.496Z,48.60
2019-02-26T10:00:16.966Z,45.90
2019-02-26T10:01:18.032Z,44.64
2019-02-26T10:02:17.277Z,45.07
2019-02-26T10:03:16.455Z,47.02
2019-02-26T10:04:17.375Z,45.78
2019-02-26T10:05:18.240Z,45.37
2019-02-26T10:06:18.596Z,44.54
2019-02-26T10:07:16.409Z,45.63
2019-02-26T10:08:17.354Z,42.70
2019-02-26T10:09:18.176Z,43.10
2019-02-26T10:10:16.373Z,43.49
2019-02-26T10:11:18.333Z,47.06
2019-02-26T10:12:16.369Z,48.68
2019-02-26T10:13:18.182Z,47.31
2019-02-26T10:14:16.345Z,46.94
2019-02-26T10:15:16.318Z,46.63
2019-02-26T10:16:16.318Z,47.28
2019-02-26T10:17:17.191Z,46.73
2019-02-26T10:18:16.302Z,46.73
2019-02-26T10:19:17.283Z,46.73
2019-02-26T10:20:17.761Z,46.38
2019-02-26T10:21:18.446Z,46.08
2019-02-26T10:22:16.244Z,45.96
2019-02-26T10:23:16.231Z,45.27
2019-02-26T10:24:18.777Z,43.52
2019-02-26T10:25:17.241Z,42.74
2019-02-26T10:26:16.206Z,43.87
2019-02-26T10:27:16.460Z,43.79
2019-02-26T10:28:17.107Z,44.84
2019-02-26T10:29:16.168Z,46.59
2019-02-26T10:30:16.301Z,45.45
2019-02-26T10:31:16.157Z,44.17
2019-02-26T10:32:16.132Z,42.90
2019-02-26T10:33:18.219Z,41.97
2019-02-26T10:34:18.245Z,42.55
2019-02-26T10:35:18.511Z,44.70
2019-02-26T10:36:18.166Z,44.54
2019-02-26T10:37:16.081Z,45.87
2019-02-26T10:38:16.078Z,45.27
2019-02-26T10:39:18.119Z,43.26
2019-02-26T10:40:17.167Z,42.92
2019-02-26T10:41:16.042Z,40.90
2019-02-26T10:42:18.071Z,39.59
2019-02-26T10:43:16.020Z,38.47
2019-02-26T10:44:16.008Z,40.60
2019-02-26T10:45:16.001Z,40.46
2019-02-26T10:46:15.979Z,40.56
2019-02-26T10:47:15.969Z,40.01
2019-02-26T10:48:18.931Z,39.29
2019-02-26T10:49:15.963Z,39.19
2019-02-26T10:50:18.473Z,40.23
2019-02-26T10:51:17.134Z,41.28
2019-02-26T10:52:16.885Z,41.56
2019-02-26T10:53:19.355Z,41.79
2019-02-26T10:54:17.986Z,39.51
2019-02-26T10:55:17.846Z,37.91
2019-02-26T10:56:15.873Z,34.76
2019-02-26T10:57:15.873Z,34.04
2019-02-26T10:58:15.863Z,35.60
2019-02-26T10:59:18.866Z,33.67
2019-02-26T11:00:15.845Z,34.16
2019-02-26T11:01:17.766Z,35.60
2019-02-26T11:02:17.824Z,34.69
2019-02-26T11:03:17.296Z,35.36
2019-02-26T11:04:15.785Z,33.83
2019-02-26T11:05:19.742Z,33.83
2019-02-26T11:06:17.368Z,36.94
2019-02-26T11:07:15.760Z,38.25
2019-02-26T11:08:15.759Z,36.62
2019-02-26T11:09:19.260Z,36.04
2019-02-26T11:10:18.102Z,36.77
2019-02-26T11:11:18.197Z,37.40
2019-02-26T11:12:15.724Z,36.86
2019-02-26T11:13:17.666Z,34.71
2019-02-26T11:14:17.388Z,35.11
2019-02-26T11:15:15.666Z,35.35
2019-02-26T11:16:22.634Z,35.05
2019-02-26T11:17:17.974Z,35.66
2019-02-26T11:18:18.023Z,34.32
2019-02-26T11:19:15.629Z,35.60
2019-02-26T11:20:15.613Z,34.64
2019-02-26T11:21:15.600Z,34.92
2019-02-26T11:22:18.110Z,34.63
2019-02-26T11:23:16.251Z,33.70
2019-02-26T11:24:15.571Z,33.92
2019-02-26T11:25:17.934Z,33.39
2019-02-26T11:26:18.068Z,33.27
2019-02-26T11:27:17.140Z,33.05
2019-02-26T11:28:15.523Z,34.22
2019-02-26T11:29:15.533Z,34.49
2019-02-26T11:30:17.605Z,33.36
2019-02-26T11:31:16.640Z,33.75
2019-02-26T11:32:15.667Z,33.81
2019-02-26T11:33:15.642Z,33.27
2019-02-26T11:34:15.456Z,34.25
2019-02-26T11:35:17.656Z,34.34
2019-02-26T11:36:15.786Z,35.25
2019-02-26T11:37:15.431Z,34.34
2019-02-26T11:38:17.072Z,34.14
2019-02-26T11:39:16.562Z,34.86
2019-02-26T11:40:17.330Z,33.70
2019-02-26T11:41:15.450Z,33.25
2019-02-26T11:42:16.475Z,31.73
2019-02-26T11:43:19.401Z,31.01
2019-02-26T11:44:19.966Z,31.16
2019-02-26T11:45:17.514Z,32.90
2019-02-26T11:46:15.339Z,33.08
2019-02-26T11:47:16.635Z,32.18
2019-02-26T11:48:17.442Z,33.67
2019-02-26T11:49:16.926Z,30.96
2019-02-26T11:50:15.304Z,32.67
2019-02-26T11:51:17.710Z,31.98
2019-02-26T11:52:15.305Z,32.98
2019-02-26T11:53:15.265Z,33.31
2019-02-26T11:54:17.557Z,31.98
2019-02-26T11:55:15.250Z,30.94
2019-02-26T11:56:15.851Z,32.09
2019-02-26T11:57:15.810Z,32.56
2019-02-26T11:58:15.977Z,32.38
2019-02-26T11:59:16.883Z,32.78
2019-02-26T12:00:24.123Z,31.16
2019-02-26T12:01:16.190Z,31.04
2019-02-26T12:02:24.955Z,30.83
2019-02-26T12:03:16.157Z,31.37
2019-02-26T12:04:17.084Z,31.39
2019-02-26T12:05:15.225Z,31.09
2019-02-26T12:06:15.117Z,31.26
2019-02-26T12:07:15.113Z,30.65
2019-02-26T12:08:17.416Z,30.73
2019-02-26T12:09:16.178Z,30.36
2019-02-26T12:10:15.123Z,30.99
2019-02-26T12:11:17.792Z,31.48
2019-02-26T12:12:16.045Z,32.41
2019-02-26T12:13:17.208Z,32.93
2019-02-26T12:14:18.429Z,33.03
2019-02-26T12:15:15.270Z,32.53
2019-02-26T12:16:15.007Z,31.32
2019-02-26T12:17:15.019Z,32.05
2019-02-26T12:18:17.400Z,33.03
2019-02-26T12:19:14.985Z,33.48
2019-02-26T12:20:17.193Z,33.60
2019-02-26T12:21:14.953Z,32.88
2019-02-26T12:22:14.961Z,31.89
2019-02-26T12:23:16.167Z,32.79
2019-02-26T12:24:14.954Z,33.28
2019-02-26T12:25:14.921Z,32.58
2019-02-26T12:26:18.612Z,31.27
2019-02-26T12:27:18.178Z,32.50
2019-02-26T12:28:15.898Z,33.10
2019-02-26T12:29:16.212Z,32.56
2019-02-26T12:30:15.810Z,31.27
2019-02-26T12:31:14.873Z,33.11
2019-02-26T12:32:16.987Z,32.68
2019-02-26T12:33:14.917Z,32.56
2019-02-26T12:34:17.446Z,32.06
2019-02-26T12:35:17.706Z,33.17
2019-02-26T12:36:14.788Z,31.36
2019-02-26T12:37:14.775Z,32.59
2019-02-26T12:39:16.172Z,34.04
2019-02-26T12:40:16.052Z,33.33
2019-02-26T12:41:15.972Z,33.35
2019-02-26T12:42:16.717Z,33.47
2019-02-26T12:43:17.159Z,34.19
2019-02-26T12:44:16.236Z,34.67
2019-02-26T12:45:14.705Z,33.45
2019-02-26T12:46:14.685Z,33.31
2019-02-26T12:47:17.493Z,33.31
2019-02-26T12:48:17.024Z,33.42
2019-02-26T12:49:17.546Z,33.44
2019-02-26T12:50:14.638Z,33.72
2019-02-26T12:51:14.646Z,33.44
2019-02-26T12:52:17.431Z,33.44
2019-02-26T12:53:17.220Z,34.47
2019-02-26T12:54:15.699Z,34.57